KBFM/BFM METAR and TAF weather

Enter ICAO airport designator
Station Type Date Time Source
KBFM METAR 2021/07/29 18:53 UTC NOAA

KBFM 291853Z 10006KT 10SM SCT035 34/23 A3002 RMK AO2 SLP166 T03390233


Station Type Date Time Source
KBFM Decoded METAR 2021/07/29 18:53 UTC NOAA

MOBILE DOWNTOWN AIRPORT, AL, United States (KBFM) 30-38N 88-04W 20M
Jul 29, 2021 - 02:53 PM EDT / 2021.07.29 1853 UTC
Wind: from the E (100 degrees) at 7 MPH (6 KT):0
Visibility: 10 mile(s):0
Sky conditions: partly cloudy
Temperature: 93.0 F (33.9 C)
Heat index: 103.1 F (39.5 C):1
Dew Point: 73.9 F (23.3 C)
Relative Humidity: 54%
Pressure (altimeter): 30.02 in. Hg (1016 hPa)
ob: KBFM 291853Z 10006KT 10SM SCT035 34/23 A3002 RMK AO2 SLP166 T03390233
cycle: 19

Station Type Date Time Source
KBFM TAF 2021/07/29 18:36 UTC NOAA

TAF KBFM 291733Z 2918/3018 12005KT P6SM SCT035
FM292100 19007KT P6SM VCTS SCT040CB BKN100
FM300100 27004KT P6SM FEW250

Example: see airport list